Time;durP1;ratioP1;P1;durP2;ratioP2;P2;SDS_P1;SDS_P2;PMS_P1;PMS_P2;Temp;Humidity;BMP_temperature;BMP_pressure;BME280_temperature;BME280_humidity;BME280_pressure;Samples;Min_cycle;Max_cycle;Signal;HPM_P1;HPM_P2
2021/11/22 00:01:41;;;;;;;21.63;6.33;;;;;3.90;101400.00;;;;10474416;28;20197;-78
2021/11/22 00:06:43;;;;;;;11.17;4.90;;;;;4.00;101411.00;;;;10487564;28;20205;-79
2021/11/22 00:11:45;;;;;;;18.03;5.77;;;;;4.00;101409.00;;;;10466579;28;20919;-78
2021/11/22 00:16:47;;;;;;;15.47;5.63;;;;;4.00;101419.00;;;;10487412;28;20189;-79
2021/11/22 00:21:50;;;;;;;20.90;5.33;;;;;4.00;101409.00;;;;10485760;28;20196;-78
2021/11/22 00:26:52;;;;;;;16.27;5.20;;;;;4.00;101424.00;;;;10513493;28;20209;-78
2021/11/22 00:31:54;;;;;;;14.63;4.03;;;;;4.00;101427.00;;;;10486688;28;20727;-78
2021/11/22 00:37:23;;;;;;;13.80;4.97;;;;;3.80;101422.00;;;;10489839;28;20203;-78
2021/11/22 00:42:25;;;;;;;13.47;5.20;;;;;3.80;101431.00;;;;10494522;28;20193;-78
2021/11/22 00:47:27;;;;;;;8.67;4.50;;;;;3.70;101442.00;;;;10489671;28;20209;-78
2021/11/22 00:52:29;;;;;;;11.80;4.60;;;;;3.70;101448.00;;;;10508112;28;20192;-78
2021/11/22 00:57:32;;;;;;;10.57;4.20;;;;;3.60;101453.00;;;;10488744;28;20189;-78
2021/11/22 01:02:34;;;;;;;15.30;4.80;;;;;3.60;101462.00;;;;10496346;28;20193;-78
2021/11/22 01:07:36;;;;;;;21.50;5.00;;;;;3.60;101472.00;;;;10494000;28;20213;-78
2021/11/22 01:12:38;;;;;;;8.63;4.60;;;;;3.60;101477.00;;;;10493602;28;20246;-78
2021/11/22 01:17:41;;;;;;;14.40;4.33;;;;;3.50;101485.00;;;;10488912;28;20243;-78
2021/11/22 01:22:44;;;;;;;12.80;4.30;;;;;3.40;101495.00;;;;10496575;28;20192;-78
2021/11/22 01:27:47;;;;;;;11.57;4.00;;;;;3.30;101504.00;;;;10484938;28;20643;-79
2021/11/22 01:32:50;;;;;;;12.83;3.80;;;;;3.30;101503.00;;;;10492057;28;20224;-78
2021/11/22 01:37:52;;;;;;;11.40;3.63;;;;;3.20;101509.00;;;;10469830;28;20193;-79
2021/11/22 01:42:56;;;;;;;13.30;3.80;;;;;3.20;101511.00;;;;10484795;28;20185;-78
2021/11/22 01:47:58;;;;;;;13.13;3.30;;;;;3.10;101515.00;;;;10508296;28;20209;-78
2021/11/22 01:53:01;;;;;;;14.53;3.67;;;;;3.10;101522.00;;;;10492244;28;20201;-78
2021/11/22 01:58:03;;;;;;;13.73;3.67;;;;;3.10;101529.00;;;;10503530;28;20223;-78
2021/11/22 02:03:06;;;;;;;10.43;3.23;;;;;3.00;101524.00;;;;10484356;28;20193;-78
2021/11/22 02:08:08;;;;;;;9.23;3.27;;;;;2.90;101531.00;;;;10450389;28;20210;-78
2021/11/22 02:13:10;;;;;;;12.30;3.80;;;;;2.90;101544.00;;;;10485327;28;20192;-78
2021/11/22 02:18:13;;;;;;;10.90;3.37;;;;;2.90;101553.00;;;;10507517;28;20227;-78
2021/11/22 02:23:16;;;;;;;18.53;3.90;;;;;2.90;101560.00;;;;10470321;28;20248;-78
2021/11/22 02:28:18;;;;;;;17.17;4.33;;;;;2.90;101557.00;;;;10474574;28;20303;-78
2021/11/22 02:33:27;;;;;;;9.70;3.13;;;;;2.90;101565.00;;;;10490283;28;20212;-79
2021/11/22 02:38:32;;;;;;;13.53;3.73;;;;;2.90;101562.00;;;;10473881;28;20200;-78
2021/11/22 02:43:39;;;;;;;11.87;3.43;;;;;2.90;101575.00;;;;10449123;28;20604;-78
2021/11/22 02:48:41;;;;;;;7.93;3.00;;;;;2.90;101573.00;;;;10488655;28;20209;-79
2021/11/22 02:53:43;;;;;;;11.47;3.20;;;;;2.90;101572.00;;;;10506669;28;20185;-79
2021/11/22 02:58:45;;;;;;;7.13;2.93;;;;;2.90;101589.00;;;;10442155;28;20201;-78
2021/11/22 03:03:47;;;;;;;10.13;3.30;;;;;2.90;101587.00;;;;10451263;28;20227;-79
2021/11/22 03:08:50;;;;;;;14.23;3.73;;;;;2.80;101589.00;;;;10505034;28;20212;-78
2021/11/22 03:13:52;;;;;;;13.03;3.53;;;;;2.90;101599.00;;;;10478389;28;20190;-79
2021/11/22 03:18:54;;;;;;;9.53;3.80;;;;;2.80;101605.00;;;;10518043;28;20563;-79
2021/11/22 03:23:55;;;;;;;7.77;3.47;;;;;2.80;101615.00;;;;10497285;28;20197;-79
2021/11/22 03:28:57;;;;;;;10.10;3.60;;;;;2.90;101615.00;;;;10488990;28;20259;-79
2021/11/22 03:34:01;;;;;;;11.17;3.93;;;;;2.80;101617.00;;;;10485358;28;20268;-79
2021/11/22 03:39:12;;;;;;;9.70;3.47;;;;;2.80;101631.00;;;;10479077;28;20223;-79
2021/11/22 03:44:14;;;;;;;12.77;3.13;;;;;2.80;101630.00;;;;10536428;28;20192;-79
2021/11/22 03:49:17;;;;;;;7.83;3.30;;;;;2.80;101645.00;;;;10479590;28;20756;-78
2021/11/22 03:54:21;;;;;;;11.30;4.30;;;;;2.90;101650.00;;;;10504825;28;20192;-78
2021/11/22 03:59:23;;;;;;;8.30;3.57;;;;;2.90;101663.00;;;;10471454;28;20197;-79
2021/11/22 04:04:25;;;;;;;7.63;3.00;;;;;2.90;101671.00;;;;10497361;28;20196;-78
2021/11/22 04:09:27;;;;;;;6.50;2.93;;;;;2.90;101667.00;;;;10472256;28;20218;-78
2021/11/22 04:14:29;;;;;;;7.27;3.87;;;;;2.90;101688.00;;;;10485620;28;20204;-79
2021/11/22 04:19:31;;;;;;;8.23;3.30;;;;;2.90;101688.00;;;;10464110;28;20620;-79
2021/11/22 04:24:34;;;;;;;5.93;2.77;;;;;2.90;101708.00;;;;10471099;28;20200;-79
2021/11/22 04:29:36;;;;;;;9.93;3.07;;;;;2.90;101706.00;;;;10486223;28;20197;-79
2021/11/22 04:34:38;;;;;;;9.17;2.83;;;;;2.90;101712.00;;;;10446356;28;20216;-79
2021/11/22 04:39:40;;;;;;;10.03;3.10;;;;;2.80;101730.00;;;;10482642;28;20747;-79
2021/11/22 04:44:42;;;;;;;9.33;3.77;;;;;2.80;101744.00;;;;10478245;28;20198;-79
2021/11/22 04:49:44;;;;;;;8.43;3.47;;;;;2.80;101754.00;;;;10489100;28;20216;-79
2021/11/22 04:54:46;;;;;;;5.27;2.97;;;;;2.80;101754.00;;;;10502117;28;20340;-79
2021/11/22 04:59:48;;;;;;;18.97;3.13;;;;;2.80;101755.00;;;;10486529;28;20197;-79
2021/11/22 05:04:50;;;;;;;13.10;3.53;;;;;2.80;101759.00;;;;10485125;28;20189;-79
2021/11/22 05:09:53;;;;;;;12.03;3.10;;;;;2.70;101767.00;;;;10501694;28;20209;-79
2021/11/22 05:14:55;;;;;;;4.10;2.60;;;;;2.70;101777.00;;;;10477492;28;20194;-79
2021/11/22 05:19:56;;;;;;;6.70;3.53;;;;;2.60;101781.00;;;;10475829;28;20189;-79
2021/11/22 05:25:00;;;;;;;9.80;3.77;;;;;2.60;101793.00;;;;10472866;28;20231;-79
2021/11/22 05:30:03;;;;;;;15.30;4.40;;;;;2.60;101802.00;;;;10476072;28;20212;-79
2021/11/22 05:35:05;;;;;;;12.33;4.43;;;;;2.60;101818.00;;;;10473898;28;20193;-79
2021/11/22 05:40:08;;;;;;;7.63;3.40;;;;;2.60;101818.00;;;;10509225;28;20197;-79
2021/11/22 05:45:11;;;;;;;4.60;3.27;;;;;2.50;101824.00;;;;10500848;28;20660;-79
2021/11/22 05:50:13;;;;;;;11.73;3.73;;;;;2.40;101843.00;;;;10483680;28;20203;-79
2021/11/22 05:55:22;;;;;;;10.23;3.70;;;;;2.30;101843.00;;;;10491648;28;20193;-79
2021/11/22 06:00:24;;;;;;;7.73;4.47;;;;;2.30;101850.00;;;;10471146;28;20185;-79
2021/11/22 06:05:26;;;;;;;11.67;3.67;;;;;2.50;101847.00;;;;10480838;28;20189;-79
2021/11/22 06:10:29;;;;;;;10.27;4.63;;;;;2.70;101861.00;;;;10452418;28;20207;-79
2021/11/22 06:15:31;;;;;;;9.87;4.20;;;;;2.90;101870.00;;;;10493703;28;20185;-79
2021/11/22 06:20:33;;;;;;;13.33;4.57;;;;;3.00;101877.00;;;;10474970;28;20193;-78
2021/11/22 06:25:36;;;;;;;12.07;4.50;;;;;3.10;101881.00;;;;10481287;28;20201;-78
2021/11/22 06:30:40;;;;;;;13.80;4.77;;;;;3.20;101906.00;;;;10493562;28;20254;-78
2021/11/22 06:35:42;;;;;;;12.60;5.70;;;;;3.30;101907.00;;;;10497259;28;20200;-78
2021/11/22 06:40:45;;;;;;;11.03;5.53;;;;;3.40;101913.00;;;;10484768;28;20193;-78
2021/11/22 06:45:47;;;;;;;14.60;5.50;;;;;3.40;101920.00;;;;10470810;28;20193;-78
2021/11/22 06:50:49;;;;;;;16.67;5.50;;;;;3.50;101933.00;;;;10472858;28;20760;-78
2021/11/22 06:55:52;;;;;;;10.00;5.67;;;;;3.50;101935.00;;;;10493438;28;20189;-78
2021/11/22 07:00:54;;;;;;;9.00;5.30;;;;;3.60;101946.00;;;;10480390;28;20190;-78
2021/11/22 07:05:56;;;;;;;10.13;5.57;;;;;3.60;101948.00;;;;10472947;28;20671;-78
2021/11/22 07:10:57;;;;;;;8.70;5.17;;;;;3.60;101960.00;;;;10472552;28;20205;-78
2021/11/22 07:16:00;;;;;;;13.13;6.23;;;;;3.70;101972.00;;;;10490095;28;20185;-78
2021/11/22 07:21:02;;;;;;;13.97;6.70;;;;;3.70;101980.00;;;;10555555;28;20181;-79
2021/11/22 07:26:05;;;;;;;13.47;7.07;;;;;3.80;101997.00;;;;10473459;28;20224;-78
2021/11/22 07:31:07;;;;;;;16.43;7.00;;;;;3.80;101995.00;;;;10500220;28;20269;-79
2021/11/22 07:36:09;;;;;;;12.27;6.93;;;;;3.90;102009.00;;;;10462985;28;20193;-78
2021/11/22 07:41:11;;;;;;;10.60;7.17;;;;;3.90;102023.00;;;;10476789;28;20344;-78
2021/11/22 07:46:12;;;;;;;12.77;8.00;;;;;4.00;102033.00;;;;10487804;28;20196;-78
2021/11/22 07:51:14;;;;;;;22.57;8.27;;;;;4.10;102044.00;;;;10498680;28;20207;-78
2021/11/22 07:56:17;;;;;;;9.90;8.07;;;;;4.20;102038.00;;;;10505471;28;20193;-78
2021/11/22 08:01:19;;;;;;;12.80;8.47;;;;;4.20;102048.00;;;;10479161;28;20234;-78
2021/11/22 08:06:23;;;;;;;15.63;8.13;;;;;4.30;102070.00;;;;10475202;28;20560;-78
2021/11/22 08:16:27;;;;;;;11.73;8.40;;;;;4.50;102081.00;;;;10475167;28;20196;-78
2021/11/22 08:21:29;;;;;;;17.07;9.80;;;;;4.60;102093.00;;;;10496855;28;20242;-78
2021/11/22 08:26:31;;;;;;;14.57;8.70;;;;;4.70;102103.00;;;;10466015;28;20189;-78
2021/11/22 08:31:33;;;;;;;13.93;8.67;;;;;4.80;102108.00;;;;10503353;28;20250;-78
2021/11/22 08:36:35;;;;;;;17.27;10.37;;;;;4.90;102116.00;;;;10487384;28;20299;-79
2021/11/22 08:41:37;;;;;;;22.83;9.53;;;;;4.90;102126.00;;;;10480832;28;20201;-79
2021/11/22 08:46:41;;;;;;;17.03;9.60;;;;;5.00;102122.00;;;;10460340;28;20185;-78
2021/11/22 08:51:44;;;;;;;13.07;8.27;;;;;5.10;102134.00;;;;10465546;28;20201;-78
2021/11/22 08:56:47;;;;;;;14.23;8.53;;;;;5.10;102134.00;;;;10527930;28;20601;-78
2021/11/22 09:01:49;;;;;;;12.40;8.57;;;;;5.10;102150.00;;;;10497279;28;20197;-78
2021/11/22 09:06:51;;;;;;;14.23;7.40;;;;;5.20;102146.00;;;;10494395;28;20267;-78
2021/11/22 09:11:53;;;;;;;12.67;7.00;;;;;5.40;102154.00;;;;10495167;28;20726;-78
2021/11/22 09:16:55;;;;;;;12.27;7.13;;;;;5.60;102171.00;;;;10508060;28;20189;-79
2021/11/22 09:21:57;;;;;;;10.27;7.47;;;;;5.90;102196.00;;;;10494512;28;20197;-78
2021/11/22 09:26:59;;;;;;;12.87;7.03;;;;;6.20;102196.00;;;;10489316;28;20200;-78
2021/11/22 09:32:05;;;;;;;11.07;6.20;;;;;6.30;102206.00;;;;10493568;28;20231;-78
2021/11/22 09:37:07;;;;;;;9.67;5.93;;;;;6.70;102203.00;;;;10502141;28;20191;-78
2021/11/22 09:42:10;;;;;;;8.17;4.80;;;;;6.80;102211.00;;;;10492194;28;20220;-78
2021/11/22 09:47:13;;;;;;;9.20;4.73;;;;;6.90;102213.00;;;;10517725;28;20656;-78
2021/11/22 09:52:15;;;;;;;9.70;5.40;;;;;7.30;102208.00;;;;10526198;28;20717;-78
2021/11/22 09:57:17;;;;;;;7.40;5.13;;;;;7.40;102211.00;;;;10490776;28;20271;-78
2021/11/22 10:02:20;;;;;;;7.63;3.83;;;;;7.70;102216.00;;;;10491808;28;20216;-78
2021/11/22 10:07:32;;;;;;;14.33;3.83;;;;;8.00;102224.00;;;;10472196;28;20200;-78
2021/11/22 10:12:34;;;;;;;6.33;3.20;;;;;8.20;102241.00;;;;10492860;28;20192;-78
2021/11/22 10:17:39;;;;;;;5.83;2.43;;;;;8.50;102253.00;;;;10475899;28;20598;-78
2021/11/22 10:22:45;;;;;;;6.40;2.50;;;;;8.70;102250.00;;;;10508725;28;20193;-78
2021/11/22 10:27:47;;;;;;;4.63;3.03;;;;;8.90;102251.00;;;;10491542;28;20204;-78
2021/11/22 10:32:52;;;;;;;5.07;2.60;;;;;9.20;102247.00;;;;10490732;28;20236;-78
2021/11/22 10:38:01;;;;;;;3.83;2.07;;;;;9.30;102246.00;;;;10491685;28;20189;-78
2021/11/22 10:43:04;;;;;;;7.53;2.83;;;;;9.30;102238.00;;;;10466140;28;20648;-78
2021/11/22 10:48:25;;;;;;;4.63;1.80;;;;;9.40;102245.00;;;;10466177;28;20263;-78
2021/11/22 10:53:37;;;;;;;5.63;2.10;;;;;9.50;102238.00;;;;10485214;28;20271;-78
2021/11/22 10:59:17;;;;;;;3.23;1.60;;;;;9.90;102236.00;;;;10474777;28;20721;-78
2021/11/22 11:04:22;;;;;;;3.47;1.63;;;;;10.00;102233.00;;;;10469552;28;20205;-79
2021/11/22 11:09:31;;;;;;;3.87;1.77;;;;;10.10;102224.00;;;;10475213;28;20197;-78
2021/11/22 11:14:35;;;;;;;3.23;1.43;;;;;10.00;102234.00;;;;10520456;28;20192;-78
2021/11/22 11:19:38;;;;;;;2.60;1.40;;;;;10.00;102238.00;;;;10505748;28;20659;-78
2021/11/22 11:24:41;;;;;;;2.80;1.33;;;;;10.00;102235.00;;;;10443465;28;20212;-78
2021/11/22 11:30:03;;;;;;;2.17;1.40;;;;;10.20;102234.00;;;;10464109;28;20258;-79
2021/11/22 11:35:14;;;;;;;2.37;1.20;;;;;10.10;102235.00;;;;10492436;28;20193;-78
2021/11/22 11:40:24;;;;;;;3.80;1.00;;;;;10.10;102227.00;;;;10502185;28;20201;-79
2021/11/22 11:45:35;;;;;;;5.93;1.20;;;;;10.10;102228.00;;;;10471896;28;20207;-78
2021/11/22 11:50:43;;;;;;;2.60;1.10;;;;;10.10;102226.00;;;;10449449;28;20205;-78
2021/11/22 11:56:09;;;;;;;3.47;0.90;;;;;10.20;102223.00;;;;10488619;28;20747;-78
2021/11/22 12:01:17;;;;;;;3.90;1.53;;;;;10.30;102229.00;;;;10451601;28;20193;-78
2021/11/22 12:06:50;;;;;;;1.53;0.90;;;;;10.50;102220.00;;;;10482335;28;20203;-78
2021/11/22 12:11:52;;;;;;;2.23;1.20;;;;;10.50;102227.00;;;;10454104;28;20213;-78
2021/11/22 12:16:54;;;;;;;1.87;0.87;;;;;10.50;102230.00;;;;10487795;28;20593;-78
2021/11/22 12:22:16;;;;;;;2.20;1.10;;;;;10.40;102218.00;;;;10471561;28;20185;-78
2021/11/22 12:27:27;;;;;;;2.30;1.13;;;;;10.50;102223.00;;;;10477938;28;20195;-79
2021/11/22 12:32:33;;;;;;;1.27;0.90;;;;;10.40;102231.00;;;;10485019;28;20979;-79
2021/11/22 12:37:49;;;;;;;2.20;1.10;;;;;10.30;102229.00;;;;10474820;28;20315;-79
2021/11/22 12:42:55;;;;;;;3.20;1.20;;;;;10.30;102232.00;;;;10493424;28;20193;-78
2021/11/22 12:47:57;;;;;;;2.33;1.17;;;;;10.20;102239.00;;;;10512994;28;20208;-78
2021/11/22 12:53:14;;;;;;;1.40;0.80;;;;;10.20;102242.00;;;;10495313;28;20279;-78
2021/11/22 12:58:19;;;;;;;1.53;0.97;;;;;10.20;102248.00;;;;10494914;28;20191;-78
2021/11/22 13:03:22;;;;;;;2.77;0.90;;;;;10.10;102249.00;;;;10524122;28;20234;-78
2021/11/22 13:08:42;;;;;;;1.10;0.80;;;;;10.00;102245.00;;;;10511812;28;20207;-78
2021/11/22 13:13:56;;;;;;;2.40;1.03;;;;;9.90;102254.00;;;;10528215;28;20188;-78
2021/11/22 13:19:05;;;;;;;4.53;1.13;;;;;9.80;102259.00;;;;10510421;28;20197;-78
2021/11/22 13:24:14;;;;;;;4.67;1.50;;;;;9.70;102256.00;;;;10456962;28;20254;-78
2021/11/22 13:29:22;;;;;;;3.43;1.20;;;;;9.50;102262.00;;;;10452887;28;20205;-78
2021/11/22 13:34:29;;;;;;;3.97;1.60;;;;;9.40;102271.00;;;;10485892;28;20209;-78
2021/11/22 13:39:36;;;;;;;5.77;1.20;;;;;9.30;102255.00;;;;10471253;28;20205;-78
2021/11/22 13:44:44;;;;;;;2.63;1.40;;;;;9.30;102265.00;;;;10493631;28;20193;-78
2021/11/22 13:49:47;;;;;;;2.37;1.20;;;;;9.30;102262.00;;;;10494272;28;20216;-78
2021/11/22 13:54:53;;;;;;;3.57;1.47;;;;;9.30;102262.00;;;;10477877;28;20195;-78
2021/11/22 13:59:55;;;;;;;5.03;1.40;;;;;9.40;102267.00;;;;10509951;28;20618;-79
2021/11/22 14:05:01;;;;;;;3.43;1.30;;;;;9.00;102268.00;;;;10483013;28;20197;-78
2021/11/22 14:10:04;;;;;;;2.83;1.23;;;;;8.50;102263.00;;;;10481052;28;20309;-78
2021/11/22 14:15:25;;;;;;;3.10;1.20;;;;;8.30;102269.00;;;;10508778;28;20203;-77
2021/11/22 14:20:27;;;;;;;1.20;1.00;;;;;8.10;102270.00;;;;10487380;28;20194;-77
2021/11/22 14:25:31;;;;;;;3.77;1.20;;;;;7.90;102275.00;;;;10494435;28;20690;-78
2021/11/22 14:30:36;;;;;;;2.43;1.17;;;;;7.80;102274.00;;;;10478506;28;20216;-78
2021/11/22 14:35:42;;;;;;;2.70;1.20;;;;;7.70;102276.00;;;;10491774;28;20279;-78
2021/11/22 14:40:53;;;;;;;2.17;1.00;;;;;7.60;102281.00;;;;10470408;28;20205;-78
2021/11/22 14:45:56;;;;;;;2.93;1.20;;;;;7.50;102283.00;;;;10471728;28;20232;-78
2021/11/22 14:51:17;;;;;;;2.33;1.47;;;;;7.30;102280.00;;;;10484025;28;20217;-79
2021/11/22 14:56:31;;;;;;;1.83;1.20;;;;;7.20;102290.00;;;;10503791;28;20209;-77
2021/11/22 15:01:40;;;;;;;1.40;1.30;;;;;7.10;102292.00;;;;10483173;28;20263;-77
2021/11/22 15:06:46;;;;;;;3.63;1.60;;;;;7.00;102286.00;;;;10476841;28;20892;-77
2021/11/22 15:11:52;;;;;;;16.33;2.60;;;;;6.80;102309.00;;;;10497067;28;20296;-78
2021/11/22 15:16:58;;;;;;;5.07;1.70;;;;;6.70;102304.00;;;;10498367;28;20212;-78
2021/11/22 15:22:01;;;;;;;4.47;1.70;;;;;6.50;102317.00;;;;10458908;28;20284;-78
2021/11/22 15:27:10;;;;;;;4.23;1.70;;;;;6.40;102317.00;;;;10453638;28;20202;-78
2021/11/22 15:32:13;;;;;;;8.17;2.73;;;;;6.30;102315.00;;;;10469734;28;20212;-78
2021/11/22 15:37:15;;;;;;;10.40;3.30;;;;;6.10;102319.00;;;;10520442;28;20242;-78
2021/11/22 15:42:19;;;;;;;7.57;2.73;;;;;5.90;102321.00;;;;10500797;28;20192;-77
2021/11/22 15:47:21;;;;;;;4.17;3.10;;;;;5.80;102322.00;;;;10499854;28;20259;-78
2021/11/22 15:52:23;;;;;;;6.03;3.13;;;;;5.60;102331.00;;;;10463020;28;20281;-78
2021/11/22 15:57:25;;;;;;;4.83;2.50;;;;;5.30;102320.00;;;;10487807;28;20200;-78
2021/11/22 16:02:27;;;;;;;4.73;2.10;;;;;5.20;102324.00;;;;10456856;28;20199;-78
2021/11/22 16:07:29;;;;;;;3.27;2.20;;;;;5.00;102323.00;;;;10498260;28;20189;-78
2021/11/22 16:12:30;;;;;;;7.93;2.40;;;;;4.90;102320.00;;;;10513989;28;20220;-78
2021/11/22 16:17:32;;;;;;;5.30;2.03;;;;;4.80;102315.00;;;;10501958;28;20197;-78
2021/11/22 16:22:34;;;;;;;5.73;2.50;;;;;4.70;102325.00;;;;10484433;28;20212;-78
2021/11/22 16:27:36;;;;;;;5.47;2.17;;;;;4.60;102321.00;;;;10524148;28;20248;-78
2021/11/22 16:32:38;;;;;;;3.90;2.00;;;;;4.50;102325.00;;;;10448650;28;20635;-78
2021/11/22 16:37:40;;;;;;;5.97;2.33;;;;;4.40;102325.00;;;;10466063;28;20201;-78
2021/11/22 16:42:42;;;;;;;6.77;3.27;;;;;4.20;102340.00;;;;10500373;28;20254;-78
2021/11/22 16:47:43;;;;;;;4.40;2.20;;;;;4.10;102349.00;;;;10468164;28;20246;-78
2021/11/22 16:52:47;;;;;;;6.03;2.97;;;;;4.00;102353.00;;;;10501846;28;20251;-78
2021/11/22 16:57:49;;;;;;;6.77;2.80;;;;;3.80;102355.00;;;;10502107;28;20190;-78
2021/11/22 17:02:51;;;;;;;4.80;3.03;;;;;3.70;102365.00;;;;10519781;28;20650;-78
2021/11/22 17:07:59;;;;;;;10.47;5.23;;;;;3.60;102358.00;;;;10464043;28;20203;-78
2021/11/22 17:13:02;;;;;;;9.60;4.70;;;;;3.50;102361.00;;;;10508279;28;20205;-78
2021/11/22 17:18:06;;;;;;;8.57;4.50;;;;;3.40;102362.00;;;;10470242;28;20247;-78
2021/11/22 17:23:08;;;;;;;11.90;5.70;;;;;3.30;102360.00;;;;10496494;28;20185;-78
2021/11/22 17:28:10;;;;;;;6.47;5.03;;;;;3.10;102364.00;;;;10505139;28;20594;-77
2021/11/22 17:33:12;;;;;;;8.07;5.80;;;;;3.00;102371.00;;;;10492997;28;20289;-78
2021/11/22 17:38:14;;;;;;;11.50;4.97;;;;;3.00;102361.00;;;;10495495;28;20253;-78
2021/11/22 17:43:16;;;;;;;8.50;5.10;;;;;2.90;102373.00;;;;10510474;28;20574;-77
2021/11/22 17:48:18;;;;;;;9.00;4.97;;;;;2.80;102367.00;;;;10493336;28;20242;-77
2021/11/22 17:53:20;;;;;;;9.60;4.53;;;;;2.70;102382.00;;;;10521629;28;20208;-77
2021/11/22 17:58:24;;;;;;;6.97;4.57;;;;;2.60;102391.00;;;;10464970;28;20193;-77
2021/11/22 18:03:26;;;;;;;11.60;6.13;;;;;2.60;102397.00;;;;10471858;28;20200;-77
2021/11/22 18:08:28;;;;;;;13.80;6.43;;;;;2.60;102404.00;;;;10495809;28;20200;-78
2021/11/22 18:13:30;;;;;;;7.30;5.87;;;;;2.50;102399.00;;;;10483894;28;20250;-78
2021/11/22 18:18:33;;;;;;;9.93;6.33;;;;;2.40;102403.00;;;;10467664;28;20197;-78
2021/11/22 18:23:35;;;;;;;9.10;6.43;;;;;2.40;102395.00;;;;10455658;28;20198;-78
2021/11/22 18:28:37;;;;;;;9.23;6.43;;;;;2.30;102405.00;;;;10494593;28;20188;-78
2021/11/22 18:33:39;;;;;;;12.57;7.03;;;;;2.30;102403.00;;;;10490087;28;20254;-78
2021/11/22 18:38:42;;;;;;;12.00;6.10;;;;;2.20;102407.00;;;;10480551;28;20211;-77
2021/11/22 18:43:44;;;;;;;10.57;6.30;;;;;2.20;102409.00;;;;10471992;28;20248;-78
2021/11/22 18:48:46;;;;;;;11.53;6.80;;;;;2.10;102414.00;;;;10513830;28;20204;-78
2021/11/22 18:53:48;;;;;;;14.03;7.63;;;;;2.10;102413.00;;;;10549717;28;20217;-78
2021/11/22 18:58:50;;;;;;;14.23;7.47;;;;;2.20;102423.00;;;;10485602;28;20186;-78
2021/11/22 19:03:51;;;;;;;11.40;7.27;;;;;2.20;102436.00;;;;10481637;28;20200;-78
2021/11/22 19:08:54;;;;;;;11.47;6.53;;;;;2.20;102424.00;;;;10457779;28;20557;-77
2021/11/22 19:13:56;;;;;;;9.40;7.50;;;;;2.20;102429.00;;;;10465700;28;20579;-77
2021/11/22 19:19:02;;;;;;;11.27;6.97;;;;;2.20;102428.00;;;;10449871;28;20185;-77
2021/11/22 19:24:10;;;;;;;10.90;6.67;;;;;2.20;102421.00;;;;10463674;28;20303;-78
2021/11/22 19:29:15;;;;;;;11.03;6.43;;;;;2.20;102441.00;;;;10490993;28;20216;-77
2021/11/22 19:34:18;;;;;;;12.77;7.57;;;;;2.20;102442.00;;;;10494097;28;20270;-77
2021/11/22 19:39:20;;;;;;;10.60;7.60;;;;;2.10;102446.00;;;;10513818;28;20204;-78
2021/11/22 19:44:22;;;;;;;9.87;7.97;;;;;2.10;102461.00;;;;10480727;28;20205;-77
2021/11/22 19:49:25;;;;;;;12.47;7.40;;;;;2.10;102446.00;;;;10533878;28;20205;-77
2021/11/22 19:54:27;;;;;;;11.37;6.73;;;;;2.00;102459.00;;;;10452147;28;20198;-77
2021/11/22 19:59:31;;;;;;;15.60;8.37;;;;;2.00;102460.00;;;;10485006;28;20195;-77
2021/11/22 20:04:47;;;;;;;14.20;10.47;;;;;1.80;102448.00;;;;10482050;28;20586;-77
2021/11/22 20:09:49;;;;;;;15.90;9.90;;;;;1.70;102442.00;;;;10535181;28;20291;-78
2021/11/22 20:14:56;;;;;;;14.37;9.23;;;;;1.70;102456.00;;;;10501792;28;20197;-77
2021/11/22 20:19:58;;;;;;;11.73;8.60;;;;;1.60;102458.00;;;;10503982;28;20207;-78
2021/11/22 20:25:00;;;;;;;14.27;8.70;;;;;1.50;102453.00;;;;10488848;28;20205;-77
2021/11/22 20:30:05;;;;;;;11.57;8.53;;;;;1.40;102458.00;;;;10472117;28;20563;-77
2021/11/22 20:35:08;;;;;;;11.90;8.20;;;;;1.30;102461.00;;;;10504822;28;20196;-77
2021/11/22 20:40:12;;;;;;;12.20;8.23;;;;;1.10;102453.00;;;;10457977;28;20197;-78
2021/11/22 20:45:14;;;;;;;13.70;9.00;;;;;1.00;102465.00;;;;10491241;28;20243;-77
2021/11/22 20:50:17;;;;;;;15.10;9.23;;;;;1.00;102464.00;;;;10524131;28;20212;-78
2021/11/22 20:55:19;;;;;;;16.70;10.67;;;;;0.90;102469.00;;;;10497783;28;20200;-77
2021/11/22 21:00:21;;;;;;;13.83;9.03;;;;;0.90;102467.00;;;;10537492;28;20204;-77
2021/11/22 21:05:23;;;;;;;16.73;9.93;;;;;0.80;102472.00;;;;10504117;28;20239;-77
2021/11/22 21:10:25;;;;;;;15.30;10.77;;;;;0.70;102472.00;;;;10454618;28;20197;-77
2021/11/22 21:15:27;;;;;;;21.10;12.00;;;;;0.60;102465.00;;;;10494326;28;20177;-78
2021/11/22 21:20:36;;;;;;;15.80;11.70;;;;;0.60;102469.00;;;;10504953;28;20193;-77
2021/11/22 21:25:40;;;;;;;15.30;11.43;;;;;0.60;102476.00;;;;10486816;28;20253;-77
2021/11/22 21:30:42;;;;;;;17.00;11.97;;;;;0.60;102472.00;;;;10489730;28;20907;-77
2021/11/22 21:35:44;;;;;;;18.27;11.73;;;;;0.60;102482.00;;;;10506599;28;20189;-77
2021/11/22 21:40:46;;;;;;;16.60;11.33;;;;;0.50;102477.00;;;;10473962;28;20651;-77
2021/11/22 21:45:48;;;;;;;17.27;11.80;;;;;0.40;102492.00;;;;10526535;28;20562;-77
2021/11/22 21:50:51;;;;;;;22.43;12.93;;;;;0.40;102488.00;;;;10480188;28;20209;-77
2021/11/22 21:55:52;;;;;;;21.43;12.70;;;;;0.30;102485.00;;;;10503605;28;20197;-77
2021/11/22 22:00:54;;;;;;;20.17;12.87;;;;;0.30;102496.00;;;;10488854;28;20180;-77
2021/11/22 22:05:57;;;;;;;19.93;13.77;;;;;0.30;102484.00;;;;10527267;28;20201;-77
2021/11/22 22:10:59;;;;;;;19.43;13.77;;;;;0.20;102490.00;;;;10499270;28;20254;-77
2021/11/22 22:16:03;;;;;;;20.50;13.77;;;;;0.20;102483.00;;;;10519876;28;20203;-77
2021/11/22 22:21:06;;;;;;;21.43;15.03;;;;;0.10;102496.00;;;;10502241;28;20195;-77
2021/11/22 22:26:08;;;;;;;19.47;13.80;;;;;0.10;102513.00;;;;10531157;28;20196;-77
2021/11/22 22:31:10;;;;;;;21.37;14.70;;;;;0.10;102526.00;;;;10493415;28;20250;-77
2021/11/22 22:36:13;;;;;;;25.03;14.70;;;;;0.00;102527.00;;;;10477271;28;20587;-77
2021/11/22 22:41:17;;;;;;;33.60;21.17;;;;;-0.10;102524.00;;;;10478493;28;20200;-78
2021/11/22 22:46:19;;;;;;;24.20;14.90;;;;;-0.10;102533.00;;;;10537793;28;20283;-77
2021/11/22 22:51:21;;;;;;;23.40;14.93;;;;;-0.10;102536.00;;;;10532383;28;20201;-77
2021/11/22 22:56:23;;;;;;;19.80;14.03;;;;;-0.10;102542.00;;;;10494275;28;20189;-77
2021/11/22 23:01:25;;;;;;;25.83;15.57;;;;;-0.20;102550.00;;;;10490733;28;20234;-77
2021/11/22 23:06:29;;;;;;;23.27;13.77;;;;;-0.20;102545.00;;;;10517297;28;20212;-77
2021/11/22 23:11:40;;;;;;;21.30;14.80;;;;;-0.30;102548.00;;;;10489973;28;20616;-77
2021/11/22 23:16:42;;;;;;;25.53;14.10;;;;;-0.30;102559.00;;;;10506646;28;20710;-77
2021/11/22 23:21:45;;;;;;;20.27;14.10;;;;;-0.30;102565.00;;;;10518440;28;20260;-77
2021/11/22 23:26:47;;;;;;;18.90;13.30;;;;;-0.30;102559.00;;;;10463196;28;20221;-77
2021/11/22 23:31:49;;;;;;;20.17;14.23;;;;;-0.40;102557.00;;;;10488810;28;20269;-77
2021/11/22 23:36:51;;;;;;;20.73;13.63;;;;;-0.40;102555.00;;;;10510362;28;20229;-77
2021/11/22 23:41:54;;;;;;;19.97;13.03;;;;;-0.30;102551.00;;;;10525458;28;20204;-77
2021/11/22 23:46:56;;;;;;;19.33;13.70;;;;;-0.40;102546.00;;;;10465047;28;20266;-77
2021/11/22 23:51:58;;;;;;;20.97;13.53;;;;;-0.30;102559.00;;;;10471626;28;20254;-77
2021/11/22 23:57:01;;;;;;;22.07;14.20;;;;;-0.30;102559.00;;;;10505097;28;20185;-77
